sensor_id;sensor_type;location;lat;lon;timestamp;pressure;altitude;pressure_sealevel;temperature;humidity
51249;BME280;39642;47.556;18.728;2024-02-16T00:01:02;100298.50;;;23.09;32.17
51249;BME280;39642;47.556;18.728;2024-02-16T00:03:28;100298.59;;;23.07;32.29
51249;BME280;39642;47.556;18.728;2024-02-16T00:05:54;100293.28;;;23.07;32.21
51249;BME280;39642;47.556;18.728;2024-02-16T00:08:20;100294.25;;;23.06;32.24
51249;BME280;39642;47.556;18.728;2024-02-16T00:10:47;100292.44;;;23.06;32.29
51249;BME280;39642;47.556;18.728;2024-02-16T00:13:13;100295.09;;;23.06;32.31
51249;BME280;39642;47.556;18.728;2024-02-16T00:15:39;100295.16;;;23.05;32.39
51249;BME280;39642;47.556;18.728;2024-02-16T00:18:06;100295.16;;;23.05;32.24
51249;BME280;39642;47.556;18.728;2024-02-16T00:20:32;100290.81;;;23.04;32.37
51249;BME280;39642;47.556;18.728;2024-02-16T00:22:58;100290.81;;;23.04;32.24
51249;BME280;39642;47.556;18.728;2024-02-16T00:25:24;100291.75;;;23.03;32.23
51249;BME280;39642;47.556;18.728;2024-02-16T00:27:50;100295.28;;;23.03;32.16
51249;BME280;39642;47.556;18.728;2024-02-16T00:30:22;100286.44;;;23.03;32.19
51249;BME280;39642;47.556;18.728;2024-02-16T00:32:48;100286.44;;;23.03;32.25
51249;BME280;39642;47.556;18.728;2024-02-16T00:35:17;100293.56;;;23.02;31.96
51249;BME280;39642;47.556;18.728;2024-02-16T00:37:43;100279.44;;;23.02;31.75
51249;BME280;39642;47.556;18.728;2024-02-16T00:40:09;100278.47;;;23.03;31.66
51249;BME280;39642;47.556;18.728;2024-02-16T00:42:35;100283.78;;;23.03;31.79
51249;BME280;39642;47.556;18.728;2024-02-16T00:45:01;100285.50;;;23.04;31.71
51249;BME280;39642;47.556;18.728;2024-02-16T00:47:29;100285.50;;;23.04;31.61
51249;BME280;39642;47.556;18.728;2024-02-16T00:49:55;100284.53;;;23.05;31.79
51249;BME280;39642;47.556;18.728;2024-02-16T00:52:22;100286.28;;;23.06;31.56
51249;BME280;39642;47.556;18.728;2024-02-16T00:54:49;100280.00;;;23.07;31.55
51249;BME280;39642;47.556;18.728;2024-02-16T00:57:15;100277.34;;;23.07;31.61
51249;BME280;39642;47.556;18.728;2024-02-16T00:59:42;100280.75;;;23.09;31.74
51249;BME280;39642;47.556;18.728;2024-02-16T01:02:07;100280.66;;;23.11;31.67
51249;BME280;39642;47.556;18.728;2024-02-16T01:04:36;100282.44;;;23.10;31.58
51249;BME280;39642;47.556;18.728;2024-02-16T01:07:02;100280.56;;;23.12;31.53
51249;BME280;39642;47.556;18.728;2024-02-16T01:09:28;100279.72;;;23.12;31.64
51249;BME280;39642;47.556;18.728;2024-02-16T01:11:54;100274.41;;;23.12;31.73
51249;BME280;39642;47.556;18.728;2024-02-16T01:14:20;100275.25;;;23.12;31.70
51249;BME280;39642;47.556;18.728;2024-02-16T01:16:46;100270.87;;;23.11;31.36
51249;BME280;39642;47.556;18.728;2024-02-16T01:19:12;100277.91;;;23.12;31.81
51249;BME280;39642;47.556;18.728;2024-02-16T01:21:38;100274.41;;;23.12;31.96
51249;BME280;39642;47.556;18.728;2024-02-16T01:24:05;100273.53;;;23.11;31.64
51249;BME280;39642;47.556;18.728;2024-02-16T01:26:32;100274.47;;;23.10;31.65
51249;BME280;39642;47.556;18.728;2024-02-16T01:28:58;100279.78;;;23.10;31.52
51249;BME280;39642;47.556;18.728;2024-02-16T01:31:24;100278.94;;;23.10;31.99
51249;BME280;39642;47.556;18.728;2024-02-16T01:33:50;100284.25;;;23.10;31.43
51249;BME280;39642;47.556;18.728;2024-02-16T01:36:16;100282.56;;;23.09;31.87
51249;BME280;39642;47.556;18.728;2024-02-16T01:38:42;100280.84;;;23.07;32.12
51249;BME280;39642;47.556;18.728;2024-02-16T01:41:07;100282.66;;;23.07;32.03
51249;BME280;39642;47.556;18.728;2024-02-16T01:43:34;100278.31;;;23.06;31.97
51249;BME280;39642;47.556;18.728;2024-02-16T01:46:00;100273.00;;;23.06;31.90
51249;BME280;39642;47.556;18.728;2024-02-16T01:48:28;100270.34;;;23.06;31.87
51249;BME280;39642;47.556;18.728;2024-02-16T01:50:55;100273.06;;;23.04;31.90
51249;BME280;39642;47.556;18.728;2024-02-16T01:53:22;100272.22;;;23.04;32.06
51249;BME280;39642;47.556;18.728;2024-02-16T01:55:49;100269.56;;;23.04;32.05
51249;BME280;39642;47.556;18.728;2024-02-16T01:58:15;100273.16;;;23.03;32.27
51249;BME280;39642;47.556;18.728;2024-02-16T02:00:41;100270.50;;;23.03;32.16
51249;BME280;39642;47.556;18.728;2024-02-16T02:03:07;100265.19;;;23.03;32.14
51249;BME280;39642;47.556;18.728;2024-02-16T02:05:33;100266.16;;;23.02;31.49
51249;BME280;39642;47.556;18.728;2024-02-16T02:08:09;100267.84;;;23.03;31.93
51249;BME280;39642;47.556;18.728;2024-02-16T02:10:35;100263.50;;;23.02;31.18
51249;BME280;39642;47.556;18.728;2024-02-16T02:13:00;100257.22;;;23.03;31.14
51249;BME280;39642;47.556;18.728;2024-02-16T02:15:26;100262.53;;;23.03;31.29
51249;BME280;39642;47.556;18.728;2024-02-16T02:17:52;100263.41;;;23.03;30.97
51249;BME280;39642;47.556;18.728;2024-02-16T02:20:18;100257.97;;;23.05;31.13
51249;BME280;39642;47.556;18.728;2024-02-16T02:22:44;100252.59;;;23.06;31.55
51249;BME280;39642;47.556;18.728;2024-02-16T02:25:10;100251.75;;;23.06;31.13
51249;BME280;39642;47.556;18.728;2024-02-16T02:27:37;100256.09;;;23.07;30.94
51249;BME280;39642;47.556;18.728;2024-02-16T02:30:04;100256.84;;;23.09;30.87
51249;BME280;39642;47.556;18.728;2024-02-16T02:32:30;100253.22;;;23.10;31.06
51249;BME280;39642;47.556;18.728;2024-02-16T02:34:56;100254.94;;;23.11;31.08
51249;BME280;39642;47.556;18.728;2024-02-16T02:37:22;100256.66;;;23.12;30.86
51249;BME280;39642;47.556;18.728;2024-02-16T02:39:48;100255.72;;;23.13;30.75
51249;BME280;39642;47.556;18.728;2024-02-16T02:42:14;100253.06;;;23.13;31.36
51249;BME280;39642;47.556;18.728;2024-02-16T02:44:40;100256.56;;;23.14;31.05
51249;BME280;39642;47.556;18.728;2024-02-16T02:47:06;100256.56;;;23.14;30.70
51249;BME280;39642;47.556;18.728;2024-02-16T02:49:32;100253.91;;;23.14;30.67
51249;BME280;39642;47.556;18.728;2024-02-16T02:52:00;100258.38;;;23.13;31.36
51249;BME280;39642;47.556;18.728;2024-02-16T02:54:27;100257.53;;;23.13;30.79
51249;BME280;39642;47.556;18.728;2024-02-16T02:56:53;100262.84;;;23.13;30.70
51249;BME280;39642;47.556;18.728;2024-02-16T02:59:19;100262.84;;;23.13;30.71
51249;BME280;39642;47.556;18.728;2024-02-16T03:01:45;100260.28;;;23.11;30.73
51249;BME280;39642;47.556;18.728;2024-02-16T03:04:11;100260.28;;;23.11;31.47
51249;BME280;39642;47.556;18.728;2024-02-16T03:06:37;100260.28;;;23.11;31.52
51249;BME280;39642;47.556;18.728;2024-02-16T03:09:03;100261.19;;;23.10;31.44
51249;BME280;39642;47.556;18.728;2024-02-16T03:11:29;100268.31;;;23.10;31.49
51249;BME280;39642;47.556;18.728;2024-02-16T03:13:55;100270.13;;;23.09;31.23
51249;BME280;39642;47.556;18.728;2024-02-16T03:16:20;100260.47;;;23.08;31.55
51249;BME280;39642;47.556;18.728;2024-02-16T03:18:46;100269.28;;;23.09;31.33
51249;BME280;39642;47.556;18.728;2024-02-16T03:21:13;100265.78;;;23.08;31.23
51249;BME280;39642;47.556;18.728;2024-02-16T03:23:42;100262.25;;;23.07;31.58
51249;BME280;39642;47.556;18.728;2024-02-16T03:26:19;100265.03;;;23.06;31.67
51249;BME280;39642;47.556;18.728;2024-02-16T03:28:46;100261.47;;;23.05;31.60
51249;BME280;39642;47.556;18.728;2024-02-16T03:31:20;100254.47;;;23.04;31.61
51249;BME280;39642;47.556;18.728;2024-02-16T03:33:47;100259.78;;;23.04;31.81
51249;BME280;39642;47.556;18.728;2024-02-16T03:36:13;100258.09;;;23.03;31.66
51249;BME280;39642;47.556;18.728;2024-02-16T03:38:47;100252.78;;;23.03;31.00
51249;BME280;39642;47.556;18.728;2024-02-16T03:41:19;100251.06;;;23.02;31.22
51249;BME280;39642;47.556;18.728;2024-02-16T03:43:45;100260.84;;;23.02;30.75
51249;BME280;39642;47.556;18.728;2024-02-16T03:46:11;100253.72;;;23.02;30.61
51249;BME280;39642;47.556;18.728;2024-02-16T03:48:38;100255.44;;;23.03;30.52
51249;BME280;39642;47.556;18.728;2024-02-16T03:51:04;100258.94;;;23.04;30.69
51249;BME280;39642;47.556;18.728;2024-02-16T03:53:30;100260.63;;;23.05;30.45
51249;BME280;39642;47.556;18.728;2024-02-16T03:55:56;100257.06;;;23.06;30.38
51249;BME280;39642;47.556;18.728;2024-02-16T03:58:22;100257.81;;;23.08;30.77
51249;BME280;39642;47.556;18.728;2024-02-16T04:00:48;100257.81;;;23.08;30.37
51249;BME280;39642;47.556;18.728;2024-02-16T04:03:15;100263.00;;;23.10;30.27
51249;BME280;39642;47.556;18.728;2024-02-16T04:05:41;100256.84;;;23.09;30.25
51249;BME280;39642;47.556;18.728;2024-02-16T04:08:07;100260.28;;;23.11;30.25
51249;BME280;39642;47.556;18.728;2024-02-16T04:10:34;100262.84;;;23.13;30.22
51249;BME280;39642;47.556;18.728;2024-02-16T04:13:02;100265.38;;;23.14;30.16
51249;BME280;39642;47.556;18.728;2024-02-16T04:15:28;100263.59;;;23.15;30.20
51249;BME280;39642;47.556;18.728;2024-02-16T04:17:54;100267.94;;;23.16;30.17
51249;BME280;39642;47.556;18.728;2024-02-16T04:20:20;100269.75;;;23.15;30.16
51249;BME280;39642;47.556;18.728;2024-02-16T04:22:46;100272.28;;;23.17;30.17
51249;BME280;39642;47.556;18.728;2024-02-16T04:25:12;100264.31;;;23.17;30.14
51249;BME280;39642;47.556;18.728;2024-02-16T04:27:38;100273.19;;;23.17;30.09
51249;BME280;39642;47.556;18.728;2024-02-16T04:30:04;100270.53;;;23.17;30.08
51249;BME280;39642;47.556;18.728;2024-02-16T04:32:31;100276.75;;;23.16;30.09
51249;BME280;39642;47.556;18.728;2024-02-16T04:34:57;100278.50;;;23.17;30.12
51249;BME280;39642;47.556;18.728;2024-02-16T04:37:24;100280.28;;;23.17;30.09
51249;BME280;39642;47.556;18.728;2024-02-16T04:39:51;100281.22;;;23.16;30.27
51249;BME280;39642;47.556;18.728;2024-02-16T04:42:17;100284.72;;;23.16;30.27
51249;BME280;39642;47.556;18.728;2024-02-16T04:44:43;100279.62;;;23.13;30.54
51249;BME280;39642;47.556;18.728;2024-02-16T04:47:09;100276.97;;;23.13;30.21
51249;BME280;39642;47.556;18.728;2024-02-16T04:49:35;100280.56;;;23.12;30.19
51249;BME280;39642;47.556;18.728;2024-02-16T04:52:02;100286.84;;;23.11;31.01
51249;BME280;39642;47.556;18.728;2024-02-16T04:54:28;100285.09;;;23.10;30.45
51249;BME280;39642;47.556;18.728;2024-02-16T04:56:54;100279.78;;;23.10;30.65
51249;BME280;39642;47.556;18.728;2024-02-16T04:59:20;100286.06;;;23.09;30.46
51249;BME280;39642;47.556;18.728;2024-02-16T05:01:46;100287.87;;;23.09;30.30
51249;BME280;39642;47.556;18.728;2024-02-16T05:04:13;100283.50;;;23.07;29.99
51249;BME280;39642;47.556;18.728;2024-02-16T05:06:39;100285.31;;;23.07;29.87
51249;BME280;39642;47.556;18.728;2024-02-16T05:09:08;100274.69;;;23.07;29.85
51249;BME280;39642;47.556;18.728;2024-02-16T05:11:34;100282.72;;;23.05;30.24
51249;BME280;39642;47.556;18.728;2024-02-16T05:14:00;100277.41;;;23.05;29.92
51249;BME280;39642;47.556;18.728;2024-02-16T05:16:28;100276.56;;;23.05;30.06
51249;BME280;39642;47.556;18.728;2024-02-16T05:18:55;100280.19;;;23.04;30.55
51249;BME280;39642;47.556;18.728;2024-02-16T05:21:22;100285.50;;;23.04;30.48
51249;BME280;39642;47.556;18.728;2024-02-16T05:23:48;100290.81;;;23.04;29.91
51249;BME280;39642;47.556;18.728;2024-02-16T05:26:14;100288.16;;;23.04;29.97
51249;BME280;39642;47.556;18.728;2024-02-16T05:28:39;100284.66;;;23.03;29.86
51249;BME280;39642;47.556;18.728;2024-02-16T05:31:16;100280.19;;;23.04;29.84
51249;BME280;39642;47.556;18.728;2024-02-16T05:33:45;100287.19;;;23.05;29.85
51249;BME280;39642;47.556;18.728;2024-02-16T05:36:11;100289.84;;;23.05;29.85
51249;BME280;39642;47.556;18.728;2024-02-16T05:38:38;100288.03;;;23.05;29.82
51249;BME280;39642;47.556;18.728;2024-02-16T05:41:07;100287.97;;;23.07;29.79
51249;BME280;39642;47.556;18.728;2024-02-16T05:43:34;100282.56;;;23.09;29.78
51249;BME280;39642;47.556;18.728;2024-02-16T05:46:00;100282.56;;;23.09;29.83
51249;BME280;39642;47.556;18.728;2024-02-16T05:48:26;100295.72;;;23.10;29.86
51249;BME280;39642;47.556;18.728;2024-02-16T05:50:59;100289.50;;;23.11;29.94
51249;BME280;39642;47.556;18.728;2024-02-16T05:53:27;100290.25;;;23.13;30.16
51249;BME280;39642;47.556;18.728;2024-02-16T05:55:53;100295.56;;;23.13;30.45
51249;BME280;39642;47.556;18.728;2024-02-16T05:58:21;100291.84;;;23.16;30.46
51249;BME280;39642;47.556;18.728;2024-02-16T06:00:46;100285.59;;;23.17;30.48
51249;BME280;39642;47.556;18.728;2024-02-16T06:03:14;100289.97;;;23.18;30.33
51249;BME280;39642;47.556;18.728;2024-02-16T06:05:40;100295.19;;;23.19;30.48
51249;BME280;39642;47.556;18.728;2024-02-16T06:08:10;100297.72;;;23.21;30.93
51249;BME280;39642;47.556;18.728;2024-02-16T06:10:38;100288.91;;;23.20;30.68
51249;BME280;39642;47.556;18.728;2024-02-16T06:13:04;100301.25;;;23.21;30.76
51249;BME280;39642;47.556;18.728;2024-02-16T06:15:30;100293.25;;;23.21;30.88
51249;BME280;39642;47.556;18.728;2024-02-16T06:17:56;100302.13;;;23.22;31.12
51249;BME280;39642;47.556;18.728;2024-02-16T06:20:22;100303.03;;;23.21;30.93
51249;BME280;39642;47.556;18.728;2024-02-16T06:22:48;100305.81;;;23.19;31.13
51249;BME280;39642;47.556;18.728;2024-02-16T06:25:14;100304.09;;;23.18;31.26
51249;BME280;39642;47.556;18.728;2024-02-16T06:27:40;100313.03;;;23.17;32.52
51249;BME280;39642;47.556;18.728;2024-02-16T06:30:07;100320.03;;;23.18;34.02
51249;BME280;39642;47.556;18.728;2024-02-16T06:32:36;100319.09;;;23.19;34.75
51249;BME280;39642;47.556;18.728;2024-02-16T06:35:02;100323.66;;;23.17;32.49
51249;BME280;39642;47.556;18.728;2024-02-16T06:37:28;100326.19;;;23.19;32.26
51249;BME280;39642;47.556;18.728;2024-02-16T06:39:54;100325.34;;;23.18;32.14
51249;BME280;39642;47.556;18.728;2024-02-16T06:42:19;100330.84;;;23.15;32.30
51249;BME280;39642;47.556;18.728;2024-02-16T06:44:45;100335.50;;;23.12;32.07
51249;BME280;39642;47.556;18.728;2024-02-16T06:47:11;100340.88;;;23.10;32.36
51249;BME280;39642;47.556;18.728;2024-02-16T06:49:37;100347.16;;;23.09;32.25
51249;BME280;39642;47.556;18.728;2024-02-16T06:52:03;100347.25;;;23.07;32.03
51249;BME280;39642;47.556;18.728;2024-02-16T06:54:30;100348.00;;;23.10;32.37
51249;BME280;39642;47.556;18.728;2024-02-16T06:56:56;100347.25;;;23.07;31.47
51249;BME280;39642;47.556;18.728;2024-02-16T06:59:21;100357.97;;;23.06;31.95
51249;BME280;39642;47.556;18.728;2024-02-16T07:01:48;100359.69;;;23.07;31.19
51249;BME280;39642;47.556;18.728;2024-02-16T07:04:13;100361.56;;;23.05;31.09
51249;BME280;39642;47.556;18.728;2024-02-16T07:06:40;100355.41;;;23.04;31.04
51249;BME280;39642;47.556;18.728;2024-02-16T07:09:06;100359.03;;;23.03;31.10
51249;BME280;39642;47.556;18.728;2024-02-16T07:11:32;100357.31;;;23.02;30.78
51249;BME280;39642;47.556;18.728;2024-02-16T07:14:00;100362.69;;;23.01;30.65
51249;BME280;39642;47.556;18.728;2024-02-16T07:16:28;100367.16;;;23.00;30.62
51249;BME280;39642;47.556;18.728;2024-02-16T07:18:54;100363.66;;;23.00;31.01
51249;BME280;39642;47.556;18.728;2024-02-16T07:21:19;100359.09;;;23.02;30.68
51249;BME280;39642;47.556;18.728;2024-02-16T07:23:47;100366.13;;;23.03;30.53
51249;BME280;39642;47.556;18.728;2024-02-16T07:26:13;100366.13;;;23.03;30.54
51249;BME280;39642;47.556;18.728;2024-02-16T07:28:40;100356.38;;;23.03;30.54
51249;BME280;39642;47.556;18.728;2024-02-16T07:31:06;100360.72;;;23.04;30.48
51249;BME280;39642;47.556;18.728;2024-02-16T07:33:32;100352.75;;;23.04;30.70
51249;BME280;39642;47.556;18.728;2024-02-16T07:35:57;100357.88;;;23.07;30.53
51249;BME280;39642;47.556;18.728;2024-02-16T07:38:23;100359.41;;;23.12;30.65
51249;BME280;39642;47.556;18.728;2024-02-16T07:40:49;100359.97;;;23.17;30.65
51249;BME280;39642;47.556;18.728;2024-02-16T07:43:18;100359.81;;;23.20;30.82
51249;BME280;39642;47.556;18.728;2024-02-16T07:45:44;100363.22;;;23.22;30.70
51249;BME280;39642;47.556;18.728;2024-02-16T07:48:10;100363.03;;;23.25;30.81
51249;BME280;39642;47.556;18.728;2024-02-16T07:50:36;100363.72;;;23.28;30.85
51249;BME280;39642;47.556;18.728;2024-02-16T07:53:26;100363.59;;;23.30;30.60
51249;BME280;39642;47.556;18.728;2024-02-16T07:59:15;100366.16;;;23.32;30.09
51249;BME280;39642;47.556;18.728;2024-02-16T08:01:41;100363.72;;;23.28;30.87
51249;BME280;39642;47.556;18.728;2024-02-16T08:04:10;100364.56;;;23.29;30.18
51249;BME280;39642;47.556;18.728;2024-02-16T08:06:36;100364.84;;;23.24;30.08
51249;BME280;39642;47.556;18.728;2024-02-16T08:09:04;100363.31;;;23.20;30.28
51249;BME280;39642;47.556;18.728;2024-02-16T08:11:31;100364.16;;;23.21;30.72
51249;BME280;39642;47.556;18.728;2024-02-16T08:13:58;100367.56;;;23.23;31.12
51249;BME280;39642;47.556;18.728;2024-02-16T08:16:29;100365.75;;;23.23;31.37
51249;BME280;39642;47.556;18.728;2024-02-16T08:18:55;100372.81;;;23.24;31.96
51249;BME280;39642;47.556;18.728;2024-02-16T08:21:20;100364.00;;;23.24;31.83
51249;BME280;39642;47.556;18.728;2024-02-16T08:23:46;100365.75;;;23.23;31.89
51249;BME280;39642;47.556;18.728;2024-02-16T08:26:13;100366.66;;;23.24;31.72
51249;BME280;39642;47.556;18.728;2024-02-16T08:28:39;100377.28;;;23.24;31.74
51249;BME280;39642;47.556;18.728;2024-02-16T08:31:05;100370.22;;;23.23;31.36
51249;BME280;39642;47.556;18.728;2024-02-16T08:33:32;100376.50;;;23.22;31.47
51249;BME280;39642;47.556;18.728;2024-02-16T08:36:00;100373.72;;;23.23;31.61
51249;BME280;39642;47.556;18.728;2024-02-16T08:38:28;100384.38;;;23.23;31.54
51249;BME280;39642;47.556;18.728;2024-02-16T08:40:53;100380.00;;;23.22;31.98
51249;BME280;39642;47.556;18.728;2024-02-16T08:43:19;100378.28;;;23.21;32.17
51249;BME280;39642;47.556;18.728;2024-02-16T08:45:45;100374.62;;;23.24;30.74
51249;BME280;39642;47.556;18.728;2024-02-16T08:48:11;100379.81;;;23.25;31.28
51249;BME280;39642;47.556;18.728;2024-02-16T08:50:37;100376.50;;;23.22;31.61
51249;BME280;39642;47.556;18.728;2024-02-16T08:53:03;100383.78;;;23.18;31.00
51249;BME280;39642;47.556;18.728;2024-02-16T08:55:29;100382.38;;;23.13;30.74
51249;BME280;39642;47.556;18.728;2024-02-16T08:57:55;100375.53;;;23.09;30.47
51249;BME280;39642;47.556;18.728;2024-02-16T09:00:21;100375.63;;;23.07;30.25
51249;BME280;39642;47.556;18.728;2024-02-16T09:02:51;100376.47;;;23.07;31.16
51249;BME280;39642;47.556;18.728;2024-02-16T09:05:17;100376.31;;;23.11;31.00
51249;BME280;39642;47.556;18.728;2024-02-16T09:07:43;100377.84;;;23.15;30.72
51249;BME280;39642;47.556;18.728;2024-02-16T09:10:09;100376.03;;;23.15;30.87
51249;BME280;39642;47.556;18.728;2024-02-16T09:12:35;100380.50;;;23.15;30.85
51249;BME280;39642;47.556;18.728;2024-02-16T09:15:01;100376.94;;;23.14;31.07
51249;BME280;39642;47.556;18.728;2024-02-16T09:17:29;100376.94;;;23.14;31.15
51249;BME280;39642;47.556;18.728;2024-02-16T09:19:55;100381.41;;;23.14;31.20
51249;BME280;39642;47.556;18.728;2024-02-16T09:22:21;100379.72;;;23.13;31.35
51249;BME280;39642;47.556;18.728;2024-02-16T09:24:47;100380.72;;;23.10;30.68
51249;BME280;39642;47.556;18.728;2024-02-16T09:27:13;100383.50;;;23.09;30.88
51249;BME280;39642;47.556;18.728;2024-02-16T09:29:39;100379.13;;;23.07;31.24
51249;BME280;39642;47.556;18.728;2024-02-16T09:32:05;100385.41;;;23.06;29.95
51249;BME280;39642;47.556;18.728;2024-02-16T09:34:32;100383.59;;;23.07;28.99
51249;BME280;39642;47.556;18.728;2024-02-16T09:36:57;100388.12;;;23.05;29.51
51249;BME280;39642;47.556;18.728;2024-02-16T09:39:23;100389.84;;;23.06;29.39
51249;BME280;39642;47.556;18.728;2024-02-16T09:41:50;100389.66;;;23.09;28.87
51249;BME280;39642;47.556;18.728;2024-02-16T09:44:19;100391.34;;;23.10;28.61
51249;BME280;39642;47.556;18.728;2024-02-16T09:46:46;100394.69;;;23.14;29.22
51249;BME280;39642;47.556;18.728;2024-02-16T09:49:11;100384.84;;;23.16;28.45
51249;BME280;39642;47.556;18.728;2024-02-16T09:51:37;100387.78;;;23.11;27.69
51249;BME280;39642;47.556;18.728;2024-02-16T09:54:04;100386.25;;;23.07;27.64
51249;BME280;39642;47.556;18.728;2024-02-16T09:56:30;100391.56;;;23.07;29.55
51249;BME280;39642;47.556;18.728;2024-02-16T09:58:56;100390.44;;;23.11;28.74
51249;BME280;39642;47.556;18.728;2024-02-16T10:01:22;100383.31;;;23.12;28.71
51249;BME280;39642;47.556;18.728;2024-02-16T10:03:49;100381.62;;;23.11;28.40
51249;BME280;39642;47.556;18.728;2024-02-16T10:06:16;100389.66;;;23.09;28.82
51249;BME280;39642;47.556;18.728;2024-02-16T10:08:52;100382.53;;;23.10;28.50
51249;BME280;39642;47.556;18.728;2024-02-16T10:11:20;100382.53;;;23.10;29.12
51249;BME280;39642;47.556;18.728;2024-02-16T10:13:59;100380.00;;;23.08;28.67
51249;BME280;39642;47.556;18.728;2024-02-16T10:16:26;100385.31;;;23.08;28.14
51249;BME280;39642;47.556;18.728;2024-02-16T10:18:57;100381.97;;;23.04;27.66
51249;BME280;39642;47.556;18.728;2024-02-16T10:21:30;100376.66;;;23.04;28.02
51249;BME280;39642;47.556;18.728;2024-02-16T10:24:05;100367.72;;;23.05;28.21
51249;BME280;39642;47.556;18.728;2024-02-16T10:26:35;100369.53;;;23.05;27.98
51249;BME280;39642;47.556;18.728;2024-02-16T10:29:05;100373.91;;;23.06;27.99
51249;BME280;39642;47.556;18.728;2024-02-16T10:31:32;100363.28;;;23.06;28.36
51249;BME280;39642;47.556;18.728;2024-02-16T10:34:00;100368.41;;;23.09;28.52
51249;BME280;39642;47.556;18.728;2024-02-16T10:36:31;100362.13;;;23.10;28.03
51249;BME280;39642;47.556;18.728;2024-02-16T10:38:58;100360.38;;;23.11;27.72
51249;BME280;39642;47.556;18.728;2024-02-16T10:41:28;100360.38;;;23.11;28.05
51249;BME280;39642;47.556;18.728;2024-02-16T10:43:55;100359.47;;;23.10;28.21
51249;BME280;39642;47.556;18.728;2024-02-16T10:46:25;100364.34;;;23.03;28.54
51249;BME280;39642;47.556;18.728;2024-02-16T10:48:51;100359.88;;;23.04;27.79
51249;BME280;39642;47.556;18.728;2024-02-16T10:51:20;100359.97;;;23.02;27.94
51249;BME280;39642;47.556;18.728;2024-02-16T10:53:51;100360.53;;;23.07;28.53
51249;BME280;39642;47.556;18.728;2024-02-16T10:56:35;100352.41;;;23.11;27.68
51249;BME280;39642;47.556;18.728;2024-02-16T10:59:03;100350.00;;;23.06;27.03
51249;BME280;39642;47.556;18.728;2024-02-16T11:01:39;100348.50;;;23.02;27.19
51249;BME280;39642;47.556;18.728;2024-02-16T11:04:07;100347.62;;;23.01;27.33
51249;BME280;39642;47.556;18.728;2024-02-16T11:09:23;100335.22;;;23.02;27.23
51249;BME280;39642;47.556;18.728;2024-02-16T11:11:53;100328.09;;;23.02;28.28
51249;BME280;39642;47.556;18.728;2024-02-16T11:14:18;100329.03;;;23.01;27.43
51249;BME280;39642;47.556;18.728;2024-02-16T11:16:45;100324.59;;;23.02;27.66
51249;BME280;39642;47.556;18.728;2024-02-16T11:19:14;100320.97;;;23.03;26.90
51249;BME280;39642;47.556;18.728;2024-02-16T11:21:56;100320.12;;;23.02;25.82
51249;BME280;39642;47.556;18.728;2024-02-16T11:24:30;100318.50;;;23.00;26.26
51249;BME280;39642;47.556;18.728;2024-02-16T11:26:57;100313.25;;;22.98;26.54
51249;BME280;39642;47.556;18.728;2024-02-16T11:29:25;100307.09;;;22.98;26.34
51249;BME280;39642;47.556;18.728;2024-02-16T11:31:51;100315.91;;;22.98;26.32
51249;BME280;39642;47.556;18.728;2024-02-16T11:34:25;100312.22;;;23.01;26.79
51249;BME280;39642;47.556;18.728;2024-02-16T11:36:54;100310.53;;;23.00;26.45
51249;BME280;39642;47.556;18.728;2024-02-16T11:39:22;100302.63;;;22.98;26.26
51249;BME280;39642;47.556;18.728;2024-02-16T11:42:10;100293.03;;;22.96;26.09
51249;BME280;39642;47.556;18.728;2024-02-16T11:44:38;100290.94;;;22.86;27.10
51249;BME280;39642;47.556;18.728;2024-02-16T11:47:08;100292.62;;;22.87;28.19
51249;BME280;39642;47.556;18.728;2024-02-16T11:49:38;100278.25;;;22.92;27.59
51249;BME280;39642;47.556;18.728;2024-02-16T11:52:05;100281.94;;;22.89;27.03
51249;BME280;39642;47.556;18.728;2024-02-16T11:54:31;100286.47;;;22.87;26.72
51249;BME280;39642;47.556;18.728;2024-02-16T11:56:58;100281.66;;;22.79;27.21
51249;BME280;39642;47.556;18.728;2024-02-16T11:59:24;100278.91;;;22.81;27.26
51249;BME280;39642;47.556;18.728;2024-02-16T12:01:52;100272.72;;;22.80;27.31
51249;BME280;39642;47.556;18.728;2024-02-16T12:04:26;100280.81;;;22.79;27.37
51249;BME280;39642;47.556;18.728;2024-02-16T12:07:02;100270.34;;;22.76;27.52
51249;BME280;39642;47.556;18.728;2024-02-16T12:09:28;100272.25;;;22.74;27.56
51249;BME280;39642;47.556;18.728;2024-02-16T12:11:57;100273.97;;;22.75;27.72
51249;BME280;39642;47.556;18.728;2024-02-16T12:14:23;100271.31;;;22.75;26.89
51249;BME280;39642;47.556;18.728;2024-02-16T12:16:56;100265.88;;;22.76;27.10
51249;BME280;39642;47.556;18.728;2024-02-16T12:19:22;100267.53;;;22.79;27.03
51249;BME280;39642;47.556;18.728;2024-02-16T12:21:52;100264.47;;;22.85;27.08
51249;BME280;39642;47.556;18.728;2024-02-16T12:24:19;100268.66;;;22.89;28.26
51249;BME280;39642;47.556;18.728;2024-02-16T12:26:46;100270.28;;;22.92;27.43
51249;BME280;39642;47.556;18.728;2024-02-16T12:29:13;100263.19;;;22.92;27.16
51249;BME280;39642;47.556;18.728;2024-02-16T12:31:41;100266.69;;;22.93;27.08
51249;BME280;39642;47.556;18.728;2024-02-16T12:34:10;100266.56;;;22.94;26.68
51249;BME280;39642;47.556;18.728;2024-02-16T12:36:39;100264.03;;;22.93;26.57
51249;BME280;39642;47.556;18.728;2024-02-16T12:39:09;100259.66;;;22.92;26.44
51249;BME280;39642;47.556;18.728;2024-02-16T12:41:38;100266.69;;;22.93;26.87
51249;BME280;39642;47.556;18.728;2024-02-16T12:44:05;100255.31;;;22.91;26.81
51249;BME280;39642;47.556;18.728;2024-02-16T12:46:34;100253.50;;;22.91;26.52